sensor_id;sensor_type;location;lat;lon;timestamp;temperature;humidity
69359;HTU21D;56520;49.066;8.660;2024-01-11T00:02:16;-5.84;82.98
69359;HTU21D;56520;49.066;8.660;2024-01-11T00:04:43;-5.86;82.94
69359;HTU21D;56520;49.066;8.660;2024-01-11T00:07:09;-5.87;82.94
69359;HTU21D;56520;49.066;8.660;2024-01-11T00:09:39;-5.89;82.99
69359;HTU21D;56520;49.066;8.660;2024-01-11T00:12:05;-5.89;83.20
69359;HTU21D;56520;49.066;8.660;2024-01-11T00:14:31;-5.87;83.13
69359;HTU21D;56520;49.066;8.660;2024-01-11T00:16:56;-5.87;83.26
69359;HTU21D;56520;49.066;8.660;2024-01-11T00:19:22;-5.89;83.23
69359;HTU21D;56520;49.066;8.660;2024-01-11T00:21:47;-5.92;83.26
69359;HTU21D;56520;49.066;8.660;2024-01-11T00:24:12;-5.92;83.29
69359;HTU21D;56520;49.066;8.660;2024-01-11T00:26:38;-5.93;83.36
69359;HTU21D;56520;49.066;8.660;2024-01-11T00:29:03;-5.97;83.38
69359;HTU21D;56520;49.066;8.660;2024-01-11T00:31:29;-5.96;83.45
69359;HTU21D;56520;49.066;8.660;2024-01-11T00:33:54;-5.97;83.52
69359;HTU21D;56520;49.066;8.660;2024-01-11T00:36:20;-5.99;83.53
69359;HTU21D;56520;49.066;8.660;2024-01-11T00:38:46;-6.00;83.54
69359;HTU21D;56520;49.066;8.660;2024-01-11T00:41:11;-6.03;83.61
69359;HTU21D;56520;49.066;8.660;2024-01-11T00:43:36;-6.02;83.62
69359;HTU21D;56520;49.066;8.660;2024-01-11T00:46:02;-6.05;83.66
69359;HTU21D;56520;49.066;8.660;2024-01-11T00:48:27;-6.07;83.72
69359;HTU21D;56520;49.066;8.660;2024-01-11T00:50:53;-6.08;83.78
69359;HTU21D;56520;49.066;8.660;2024-01-11T00:53:18;-6.08;83.85
69359;HTU21D;56520;49.066;8.660;2024-01-11T00:55:43;-6.11;83.93
69359;HTU21D;56520;49.066;8.660;2024-01-11T00:58:09;-6.12;84.02
69359;HTU21D;56520;49.066;8.660;2024-01-11T01:00:34;-6.13;84.11
69359;HTU21D;56520;49.066;8.660;2024-01-11T01:03:00;-6.13;84.17
69359;HTU21D;56520;49.066;8.660;2024-01-11T01:05:25;-6.13;84.18
69359;HTU21D;56520;49.066;8.660;2024-01-11T01:07:50;-6.13;84.25
69359;HTU21D;56520;49.066;8.660;2024-01-11T01:10:16;-6.13;84.29
69359;HTU21D;56520;49.066;8.660;2024-01-11T01:12:41;-6.16;84.29
69359;HTU21D;56520;49.066;8.660;2024-01-11T01:15:07;-6.18;84.37
69359;HTU21D;56520;49.066;8.660;2024-01-11T01:17:32;-6.17;84.47
69359;HTU21D;56520;49.066;8.660;2024-01-11T01:19:58;-6.18;84.48
69359;HTU21D;56520;49.066;8.660;2024-01-11T01:22:23;-6.18;84.49
69359;HTU21D;56520;49.066;8.660;2024-01-11T01:24:48;-6.21;84.50
69359;HTU21D;56520;49.066;8.660;2024-01-11T01:27:14;-6.20;84.60
69359;HTU21D;56520;49.066;8.660;2024-01-11T01:29:39;-6.23;84.73
69359;HTU21D;56520;49.066;8.660;2024-01-11T01:32:05;-6.28;84.77
69359;HTU21D;56520;49.066;8.660;2024-01-11T01:34:30;-6.38;84.75
69359;HTU21D;56520;49.066;8.660;2024-01-11T01:36:55;-6.44;84.88
69359;HTU21D;56520;49.066;8.660;2024-01-11T01:39:21;-6.49;84.85
69359;HTU21D;56520;49.066;8.660;2024-01-11T01:41:46;-6.49;84.93
69359;HTU21D;56520;49.066;8.660;2024-01-11T01:44:12;-6.48;84.98
69359;HTU21D;56520;49.066;8.660;2024-01-11T01:46:38;-6.49;85.03
69359;HTU21D;56520;49.066;8.660;2024-01-11T01:49:03;-6.52;85.00
69359;HTU21D;56520;49.066;8.660;2024-01-11T01:51:30;-6.53;85.02
69359;HTU21D;56520;49.066;8.660;2024-01-11T01:53:57;-6.56;85.00
69359;HTU21D;56520;49.066;8.660;2024-01-11T01:56:23;-6.57;85.02
69359;HTU21D;56520;49.066;8.660;2024-01-11T01:58:51;-6.55;85.03
69359;HTU21D;56520;49.066;8.660;2024-01-11T02:01:17;-6.55;85.03
69359;HTU21D;56520;49.066;8.660;2024-01-11T02:03:45;-6.56;85.06
69359;HTU21D;56520;49.066;8.660;2024-01-11T02:06:11;-6.55;85.07
69359;HTU21D;56520;49.066;8.660;2024-01-11T02:08:40;-6.56;85.10
69359;HTU21D;56520;49.066;8.660;2024-01-11T02:11:07;-6.56;85.23
69359;HTU21D;56520;49.066;8.660;2024-01-11T02:13:33;-6.55;85.26
69359;HTU21D;56520;49.066;8.660;2024-01-11T02:15:58;-6.56;85.23
69359;HTU21D;56520;49.066;8.660;2024-01-11T02:18:24;-6.58;85.38
69359;HTU21D;56520;49.066;8.660;2024-01-11T02:20:49;-6.59;85.37
69359;HTU21D;56520;49.066;8.660;2024-01-11T02:23:17;-6.58;85.42
69359;HTU21D;56520;49.066;8.660;2024-01-11T02:25:44;-6.60;85.45
69359;HTU21D;56520;49.066;8.660;2024-01-11T02:28:10;-6.61;85.48
69359;HTU21D;56520;49.066;8.660;2024-01-11T02:30:36;-6.62;85.55
69359;HTU21D;56520;49.066;8.660;2024-01-11T02:33:02;-6.63;85.62
69359;HTU21D;56520;49.066;8.660;2024-01-11T02:35:28;-6.65;85.65
69359;HTU21D;56520;49.066;8.660;2024-01-11T02:37:54;-6.66;85.69
69359;HTU21D;56520;49.066;8.660;2024-01-11T02:40:20;-6.68;85.79
69359;HTU21D;56520;49.066;8.660;2024-01-11T02:42:46;-6.65;85.88
69359;HTU21D;56520;49.066;8.660;2024-01-11T02:45:12;-6.65;85.84
69359;HTU21D;56520;49.066;8.660;2024-01-11T02:47:38;-6.67;85.84
69359;HTU21D;56520;49.066;8.660;2024-01-11T02:50:04;-6.67;85.95
69359;HTU21D;56520;49.066;8.660;2024-01-11T02:52:29;-6.67;86.03
69359;HTU21D;56520;49.066;8.660;2024-01-11T02:54:55;-6.71;86.09
69359;HTU21D;56520;49.066;8.660;2024-01-11T02:57:20;-6.74;86.11
69359;HTU21D;56520;49.066;8.660;2024-01-11T02:59:45;-6.73;86.16
69359;HTU21D;56520;49.066;8.660;2024-01-11T03:02:11;-6.72;86.24
69359;HTU21D;56520;49.066;8.660;2024-01-11T03:04:36;-6.72;86.37
69359;HTU21D;56520;49.066;8.660;2024-01-11T03:07:01;-6.70;86.38
69359;HTU21D;56520;49.066;8.660;2024-01-11T03:09:27;-6.67;86.43
69359;HTU21D;56520;49.066;8.660;2024-01-11T03:11:53;-6.67;86.47
69359;HTU21D;56520;49.066;8.660;2024-01-11T03:14:18;-6.70;86.52
69359;HTU21D;56520;49.066;8.660;2024-01-11T03:16:43;-6.70;86.54
69359;HTU21D;56520;49.066;8.660;2024-01-11T03:19:09;-6.70;86.64
69359;HTU21D;56520;49.066;8.660;2024-01-11T03:21:34;-6.70;86.64
69359;HTU21D;56520;49.066;8.660;2024-01-11T03:23:59;-6.71;86.59
69359;HTU21D;56520;49.066;8.660;2024-01-11T03:26:25;-6.73;86.66
69359;HTU21D;56520;49.066;8.660;2024-01-11T03:28:50;-6.75;86.64
69359;HTU21D;56520;49.066;8.660;2024-01-11T03:31:16;-6.78;86.66
69359;HTU21D;56520;49.066;8.660;2024-01-11T03:33:41;-6.83;86.70
69359;HTU21D;56520;49.066;8.660;2024-01-11T03:36:10;-6.87;86.73
69359;HTU21D;56520;49.066;8.660;2024-01-11T03:38:36;-6.88;86.77
69359;HTU21D;56520;49.066;8.660;2024-01-11T03:41:06;-6.90;86.76
69359;HTU21D;56520;49.066;8.660;2024-01-11T03:43:32;-6.90;86.83
69359;HTU21D;56520;49.066;8.660;2024-01-11T03:45:57;-6.89;86.81
69359;HTU21D;56520;49.066;8.660;2024-01-11T03:48:23;-6.90;86.77
69359;HTU21D;56520;49.066;8.660;2024-01-11T03:50:48;-6.93;86.74
69359;HTU21D;56520;49.066;8.660;2024-01-11T03:53:14;-6.96;86.74
69359;HTU21D;56520;49.066;8.660;2024-01-11T03:55:39;-6.95;86.84
69359;HTU21D;56520;49.066;8.660;2024-01-11T03:58:05;-6.96;86.87
69359;HTU21D;56520;49.066;8.660;2024-01-11T04:00:30;-6.95;86.85
69359;HTU21D;56520;49.066;8.660;2024-01-11T04:02:55;-6.97;86.86
69359;HTU21D;56520;49.066;8.660;2024-01-11T04:05:21;-6.98;86.86
69359;HTU21D;56520;49.066;8.660;2024-01-11T04:07:46;-7.00;86.89
69359;HTU21D;56520;49.066;8.660;2024-01-11T04:10:11;-7.00;86.95
69359;HTU21D;56520;49.066;8.660;2024-01-11T04:12:37;-7.00;86.96
69359;HTU21D;56520;49.066;8.660;2024-01-11T04:15:03;-7.03;86.98
69359;HTU21D;56520;49.066;8.660;2024-01-11T04:17:29;-7.03;86.98
69359;HTU21D;56520;49.066;8.660;2024-01-11T04:19:54;-7.05;86.98
69359;HTU21D;56520;49.066;8.660;2024-01-11T04:22:20;-7.05;87.03
69359;HTU21D;56520;49.066;8.660;2024-01-11T04:24:45;-7.07;86.98
69359;HTU21D;56520;49.066;8.660;2024-01-11T04:27:11;-7.11;86.97
69359;HTU21D;56520;49.066;8.660;2024-01-11T04:29:37;-7.16;86.96
69359;HTU21D;56520;49.066;8.660;2024-01-11T04:32:02;-7.20;87.03
69359;HTU21D;56520;49.066;8.660;2024-01-11T04:34:28;-7.20;87.12
69359;HTU21D;56520;49.066;8.660;2024-01-11T04:36:53;-7.18;87.20
69359;HTU21D;56520;49.066;8.660;2024-01-11T04:39:18;-7.16;87.21
69359;HTU21D;56520;49.066;8.660;2024-01-11T04:41:44;-7.17;87.22
69359;HTU21D;56520;49.066;8.660;2024-01-11T04:44:10;-7.13;87.16
69359;HTU21D;56520;49.066;8.660;2024-01-11T04:46:35;-7.12;87.17
69359;HTU21D;56520;49.066;8.660;2024-01-11T04:49:01;-7.12;87.19
69359;HTU21D;56520;49.066;8.660;2024-01-11T04:51:26;-7.12;87.24
69359;HTU21D;56520;49.066;8.660;2024-01-11T04:53:51;-7.09;87.30
69359;HTU21D;56520;49.066;8.660;2024-01-11T04:56:17;-7.10;87.31
69359;HTU21D;56520;49.066;8.660;2024-01-11T04:58:44;-7.09;87.40
69359;HTU21D;56520;49.066;8.660;2024-01-11T05:01:14;-7.07;87.44
69359;HTU21D;56520;49.066;8.660;2024-01-11T05:03:40;-7.09;87.50
69359;HTU21D;56520;49.066;8.660;2024-01-11T05:06:06;-7.07;87.47
69359;HTU21D;56520;49.066;8.660;2024-01-11T05:08:31;-7.08;87.47
69359;HTU21D;56520;49.066;8.660;2024-01-11T05:10:56;-7.06;87.47
69359;HTU21D;56520;49.066;8.660;2024-01-11T05:13:22;-7.02;87.46
69359;HTU21D;56520;49.066;8.660;2024-01-11T05:15:48;-6.97;87.52
69359;HTU21D;56520;49.066;8.660;2024-01-11T05:18:13;-6.94;87.49
69359;HTU21D;56520;49.066;8.660;2024-01-11T05:20:39;-6.96;87.50
69359;HTU21D;56520;49.066;8.660;2024-01-11T05:23:05;-6.96;87.51
69359;HTU21D;56520;49.066;8.660;2024-01-11T05:25:31;-6.95;87.57
69359;HTU21D;56520;49.066;8.660;2024-01-11T05:28:03;-6.95;87.62
69359;HTU21D;56520;49.066;8.660;2024-01-11T05:30:29;-6.95;87.63
69359;HTU21D;56520;49.066;8.660;2024-01-11T05:32:55;-6.96;87.64
69359;HTU21D;56520;49.066;8.660;2024-01-11T05:35:21;-6.97;87.64
69359;HTU21D;56520;49.066;8.660;2024-01-11T05:37:47;-6.98;87.66
69359;HTU21D;56520;49.066;8.660;2024-01-11T05:40:12;-7.00;87.79
69359;HTU21D;56520;49.066;8.660;2024-01-11T05:42:39;-7.00;87.87
69359;HTU21D;56520;49.066;8.660;2024-01-11T05:45:05;-7.02;87.82
69359;HTU21D;56520;49.066;8.660;2024-01-11T05:47:30;-7.06;87.76
69359;HTU21D;56520;49.066;8.660;2024-01-11T05:49:56;-7.06;87.82
69359;HTU21D;56520;49.066;8.660;2024-01-11T05:52:21;-7.03;87.96
69359;HTU21D;56520;49.066;8.660;2024-01-11T05:54:47;-7.04;88.24
69359;HTU21D;56520;49.066;8.660;2024-01-11T05:57:12;-7.04;88.18
69359;HTU21D;56520;49.066;8.660;2024-01-11T05:59:43;-7.06;88.18
69359;HTU21D;56520;49.066;8.660;2024-01-11T06:02:09;-7.07;88.19
69359;HTU21D;56520;49.066;8.660;2024-01-11T06:04:34;-7.09;88.18
69359;HTU21D;56520;49.066;8.660;2024-01-11T06:06:59;-7.08;88.27
69359;HTU21D;56520;49.066;8.660;2024-01-11T06:09:25;-7.09;88.35
69359;HTU21D;56520;49.066;8.660;2024-01-11T06:11:50;-7.09;88.57
69359;HTU21D;56520;49.066;8.660;2024-01-11T06:14:15;-7.10;88.76
69359;HTU21D;56520;49.066;8.660;2024-01-11T06:16:41;-7.11;88.71
69359;HTU21D;56520;49.066;8.660;2024-01-11T06:19:07;-7.10;88.70
69359;HTU21D;56520;49.066;8.660;2024-01-11T06:21:34;-7.12;88.66
69359;HTU21D;56520;49.066;8.660;2024-01-11T06:23:59;-7.13;88.69
69359;HTU21D;56520;49.066;8.660;2024-01-11T06:26:24;-7.15;88.71
69359;HTU21D;56520;49.066;8.660;2024-01-11T06:28:50;-7.16;88.76
69359;HTU21D;56520;49.066;8.660;2024-01-11T06:31:15;-7.19;88.76
69359;HTU21D;56520;49.066;8.660;2024-01-11T06:33:41;-7.22;88.74
69359;HTU21D;56520;49.066;8.660;2024-01-11T06:36:06;-7.23;88.79
69359;HTU21D;56520;49.066;8.660;2024-01-11T06:38:35;-7.26;88.86
69359;HTU21D;56520;49.066;8.660;2024-01-11T06:41:00;-7.29;88.89
69359;HTU21D;56520;49.066;8.660;2024-01-11T06:43:26;-7.27;89.01
69359;HTU21D;56520;49.066;8.660;2024-01-11T06:45:51;-7.27;89.21
69359;HTU21D;56520;49.066;8.660;2024-01-11T06:48:18;-7.30;89.12
69359;HTU21D;56520;49.066;8.660;2024-01-11T06:50:43;-7.30;89.14
69359;HTU21D;56520;49.066;8.660;2024-01-11T06:53:09;-7.29;89.18
69359;HTU21D;56520;49.066;8.660;2024-01-11T06:55:34;-7.27;89.23
69359;HTU21D;56520;49.066;8.660;2024-01-11T06:58:00;-7.26;89.33
69359;HTU21D;56520;49.066;8.660;2024-01-11T07:00:27;-7.25;89.42
69359;HTU21D;56520;49.066;8.660;2024-01-11T07:02:53;-7.25;89.38
69359;HTU21D;56520;49.066;8.660;2024-01-11T07:05:19;-7.21;89.34
69359;HTU21D;56520;49.066;8.660;2024-01-11T07:07:44;-7.21;89.38
69359;HTU21D;56520;49.066;8.660;2024-01-11T07:10:10;-7.20;89.34
69359;HTU21D;56520;49.066;8.660;2024-01-11T07:12:35;-7.22;89.27
69359;HTU21D;56520;49.066;8.660;2024-01-11T07:15:03;-7.25;89.23
69359;HTU21D;56520;49.066;8.660;2024-01-11T07:17:30;-7.24;89.26
69359;HTU21D;56520;49.066;8.660;2024-01-11T07:19:55;-7.25;89.28
69359;HTU21D;56520;49.066;8.660;2024-01-11T07:22:20;-7.26;89.29
69359;HTU21D;56520;49.066;8.660;2024-01-11T07:24:46;-7.27;89.24
69359;HTU21D;56520;49.066;8.660;2024-01-11T07:27:11;-7.30;89.21
69359;HTU21D;56520;49.066;8.660;2024-01-11T07:29:37;-7.31;89.26
69359;HTU21D;56520;49.066;8.660;2024-01-11T07:32:02;-7.27;89.26
69359;HTU21D;56520;49.066;8.660;2024-01-11T07:34:30;-7.26;89.27
69359;HTU21D;56520;49.066;8.660;2024-01-11T07:36:56;-7.25;89.25
69359;HTU21D;56520;49.066;8.660;2024-01-11T07:39:24;-7.25;89.15
69359;HTU21D;56520;49.066;8.660;2024-01-11T07:41:50;-7.24;89.15
69359;HTU21D;56520;49.066;8.660;2024-01-11T07:44:15;-7.22;89.16
69359;HTU21D;56520;49.066;8.660;2024-01-11T07:46:42;-7.20;89.15
69359;HTU21D;56520;49.066;8.660;2024-01-11T07:49:08;-7.17;89.13
69359;HTU21D;56520;49.066;8.660;2024-01-11T07:51:33;-7.12;89.10
69359;HTU21D;56520;49.066;8.660;2024-01-11T07:54:02;-7.08;89.11
69359;HTU21D;56520;49.066;8.660;2024-01-11T07:56:28;-7.07;89.10
69359;HTU21D;56520;49.066;8.660;2024-01-11T07:58:54;-7.03;89.08
69359;HTU21D;56520;49.066;8.660;2024-01-11T08:01:19;-6.98;89.09
69359;HTU21D;56520;49.066;8.660;2024-01-11T08:03:45;-6.94;89.12
69359;HTU21D;56520;49.066;8.660;2024-01-11T08:06:10;-6.87;89.16
69359;HTU21D;56520;49.066;8.660;2024-01-11T08:08:36;-6.71;89.20
69359;HTU21D;56520;49.066;8.660;2024-01-11T08:11:04;-6.52;89.24
69359;HTU21D;56520;49.066;8.660;2024-01-11T08:13:30;-6.31;89.28
69359;HTU21D;56520;49.066;8.660;2024-01-11T08:15:56;-6.20;89.20
69359;HTU21D;56520;49.066;8.660;2024-01-11T08:18:22;-6.01;89.13
69359;HTU21D;56520;49.066;8.660;2024-01-11T08:20:48;-5.65;89.21
69359;HTU21D;56520;49.066;8.660;2024-01-11T08:23:14;-5.26;89.38
69359;HTU21D;56520;49.066;8.660;2024-01-11T08:25:39;-4.90;89.42
69359;HTU21D;56520;49.066;8.660;2024-01-11T08:28:05;-4.48;89.47
69359;HTU21D;56520;49.066;8.660;2024-01-11T08:30:30;-4.02;89.36
69359;HTU21D;56520;49.066;8.660;2024-01-11T08:32:56;-3.64;89.30
69359;HTU21D;56520;49.066;8.660;2024-01-11T08:35:21;-3.18;89.56
69359;HTU21D;56520;49.066;8.660;2024-01-11T08:37:47;-2.79;89.28
69359;HTU21D;56520;49.066;8.660;2024-01-11T08:40:13;-2.33;89.01
69359;HTU21D;56520;49.066;8.660;2024-01-11T08:42:38;-1.87;88.94
69359;HTU21D;56520;49.066;8.660;2024-01-11T08:45:05;-1.40;88.29
69359;HTU21D;56520;49.066;8.660;2024-01-11T08:47:33;-1.27;87.63
69359;HTU21D;56520;49.066;8.660;2024-01-11T08:49:59;-1.25;85.86
69359;HTU21D;56520;49.066;8.660;2024-01-11T08:52:24;-1.21;81.70
69359;HTU21D;56520;49.066;8.660;2024-01-11T08:54:49;-1.13;79.72
69359;HTU21D;56520;49.066;8.660;2024-01-11T08:57:15;-1.05;81.03
69359;HTU21D;56520;49.066;8.660;2024-01-11T08:59:40;-0.76;81.72
69359;HTU21D;56520;49.066;8.660;2024-01-11T09:02:06;-0.42;80.88
69359;HTU21D;56520;49.066;8.660;2024-01-11T09:04:32;-0.19;76.67
69359;HTU21D;56520;49.066;8.660;2024-01-11T09:06:58;-0.24;76.24
69359;HTU21D;56520;49.066;8.660;2024-01-11T09:09:25;-0.24;76.50
69359;HTU21D;56520;49.066;8.660;2024-01-11T09:11:50;-0.10;77.22
69359;HTU21D;56520;49.066;8.660;2024-01-11T09:14:16;0.17;75.85
69359;HTU21D;56520;49.066;8.660;2024-01-11T09:16:41;0.53;75.19
69359;HTU21D;56520;49.066;8.660;2024-01-11T09:19:07;0.83;74.72
69359;HTU21D;56520;49.066;8.660;2024-01-11T09:21:32;0.99;73.69
69359;HTU21D;56520;49.066;8.660;2024-01-11T09:23:57;0.69;73.80
69359;HTU21D;56520;49.066;8.660;2024-01-11T09:26:23;0.45;74.41
69359;HTU21D;56520;49.066;8.660;2024-01-11T09:28:48;0.53;73.78
69359;HTU21D;56520;49.066;8.660;2024-01-11T09:31:14;0.59;72.84
69359;HTU21D;56520;49.066;8.660;2024-01-11T09:33:39;0.53;72.48
69359;HTU21D;56520;49.066;8.660;2024-01-11T09:36:05;0.48;72.41
69359;HTU21D;56520;49.066;8.660;2024-01-11T09:38:31;0.52;73.04
69359;HTU21D;56520;49.066;8.660;2024-01-11T09:41:07;0.84;71.57
69359;HTU21D;56520;49.066;8.660;2024-01-11T09:43:36;0.72;69.90
69359;HTU21D;56520;49.066;8.660;2024-01-11T09:46:05;0.65;69.47
69359;HTU21D;56520;49.066;8.660;2024-01-11T09:48:33;0.55;70.61
69359;HTU21D;56520;49.066;8.660;2024-01-11T09:51:04;0.63;70.80
69359;HTU21D;56520;49.066;8.660;2024-01-11T09:53:33;0.65;69.84
69359;HTU21D;56520;49.066;8.660;2024-01-11T09:56:00;0.67;69.39
69359;HTU21D;56520;49.066;8.660;2024-01-11T09:58:26;0.71;70.24
69359;HTU21D;56520;49.066;8.660;2024-01-11T10:00:56;0.92;67.84
69359;HTU21D;56520;49.066;8.660;2024-01-11T10:03:25;0.65;65.81
69359;HTU21D;56520;49.066;8.660;2024-01-11T10:05:55;0.58;68.30
69359;HTU21D;56520;49.066;8.660;2024-01-11T10:08:22;0.57;67.68
69359;HTU21D;56520;49.066;8.660;2024-01-11T10:10:48;0.59;68.29
69359;HTU21D;56520;49.066;8.660;2024-01-11T10:13:13;0.62;68.20
69359;HTU21D;56520;49.066;8.660;2024-01-11T10:15:39;0.64;68.12
69359;HTU21D;56520;49.066;8.660;2024-01-11T10:18:04;0.67;67.12
69359;HTU21D;56520;49.066;8.660;2024-01-11T10:20:30;0.60;66.47
69359;HTU21D;56520;49.066;8.660;2024-01-11T10:22:57;0.51;67.86
69359;HTU21D;56520;49.066;8.660;2024-01-11T10:25:23;0.49;66.93
69359;HTU21D;56520;49.066;8.660;2024-01-11T10:27:48;0.49;67.64
69359;HTU21D;56520;49.066;8.660;2024-01-11T10:30:15;0.60;67.68
69359;HTU21D;56520;49.066;8.660;2024-01-11T10:32:51;0.63;68.08
69359;HTU21D;56520;49.066;8.660;2024-01-11T10:35:16;0.72;68.68
69359;HTU21D;56520;49.066;8.660;2024-01-11T10:37:43;0.69;65.55
69359;HTU21D;56520;49.066;8.660;2024-01-11T10:40:10;0.45;66.11
69359;HTU21D;56520;49.066;8.660;2024-01-11T10:42:43;0.44;66.71
69359;HTU21D;56520;49.066;8.660;2024-01-11T10:45:14;0.51;67.03
69359;HTU21D;56520;49.066;8.660;2024-01-11T10:47:50;0.54;66.43
69359;HTU21D;56520;49.066;8.660;2024-01-11T10:50:16;0.50;66.98
69359;HTU21D;56520;49.066;8.660;2024-01-11T10:53:12;0.49;66.98
69359;HTU21D;56520;49.066;8.660;2024-01-11T10:55:34;0.49;67.72
69359;HTU21D;56520;49.066;8.660;2024-01-11T10:58:03;0.55;67.89
69359;HTU21D;56520;49.066;8.660;2024-01-11T11:00:30;0.63;67.88
69359;HTU21D;56520;49.066;8.660;2024-01-11T11:02:58;0.59;66.62
69359;HTU21D;56520;49.066;8.660;2024-01-11T11:05:25;0.58;68.12
69359;HTU21D;56520;49.066;8.660;2024-01-11T11:07:52;0.72;68.26
69359;HTU21D;56520;49.066;8.660;2024-01-11T11:10:19;0.83;67.93
69359;HTU21D;56520;49.066;8.660;2024-01-11T11:12:48;0.88;67.76
69359;HTU21D;56520;49.066;8.660;2024-01-11T11:15:14;0.92;67.59
69359;HTU21D;56520;49.066;8.660;2024-01-11T11:17:43;0.91;67.02
69359;HTU21D;56520;49.066;8.660;2024-01-11T11:20:10;0.82;67.10
69359;HTU21D;56520;49.066;8.660;2024-01-11T11:22:42;0.81;66.99
69359;HTU21D;56520;49.066;8.660;2024-01-11T11:25:11;0.86;65.37
69359;HTU21D;56520;49.066;8.660;2024-01-11T11:27:49;0.72;66.30
69359;HTU21D;56520;49.066;8.660;2024-01-11T11:30:14;0.80;67.60
69359;HTU21D;56520;49.066;8.660;2024-01-11T11:32:43;0.95;67.50
69359;HTU21D;56520;49.066;8.660;2024-01-11T11:35:08;1.06;67.51
69359;HTU21D;56520;49.066;8.660;2024-01-11T11:37:38;1.21;67.22
69359;HTU21D;56520;49.066;8.660;2024-01-11T11:40:09;1.27;67.03
69359;HTU21D;56520;49.066;8.660;2024-01-11T11:42:36;1.24;66.12
69359;HTU21D;56520;49.066;8.660;2024-01-11T11:45:02;1.17;66.56
69359;HTU21D;56520;49.066;8.660;2024-01-11T11:47:36;1.21;67.23
69359;HTU21D;56520;49.066;8.660;2024-01-11T11:52:33;1.34;67.29
69359;HTU21D;56520;49.066;8.660;2024-01-11T11:55:02;1.47;67.07
69359;HTU21D;56520;49.066;8.660;2024-01-11T11:57:29;1.55;65.86
69359;HTU21D;56520;49.066;8.660;2024-01-11T11:59:57;1.48;66.40
69359;HTU21D;56520;49.066;8.660;2024-01-11T12:02:30;1.52;66.16
69359;HTU21D;56520;49.066;8.660;2024-01-11T12:04:56;1.48;65.86
69359;HTU21D;56520;49.066;8.660;2024-01-11T12:07:21;1.48;65.68
69359;HTU21D;56520;49.066;8.660;2024-01-11T12:09:48;1.48;65.35
69359;HTU21D;56520;49.066;8.660;2024-01-11T12:12:14;1.47;66.32
69359;HTU21D;56520;49.066;8.660;2024-01-11T12:14:39;1.54;66.04
69359;HTU21D;56520;49.066;8.660;2024-01-11T12:17:06;1.55;65.51
69359;HTU21D;56520;49.066;8.660;2024-01-11T12:19:32;1.55;65.50
69359;HTU21D;56520;49.066;8.660;2024-01-11T12:21:58;1.56;66.11
69359;HTU21D;56520;49.066;8.660;2024-01-11T12:24:24;1.61;65.50
69359;HTU21D;56520;49.066;8.660;2024-01-11T12:26:50;1.64;66.07
69359;HTU21D;56520;49.066;8.660;2024-01-11T12:29:22;1.73;65.93
69359;HTU21D;56520;49.066;8.660;2024-01-11T12:31:48;1.82;65.45
69359;HTU21D;56520;49.066;8.660;2024-01-11T12:34:14;1.84;65.17
69359;HTU21D;56520;49.066;8.660;2024-01-11T12:36:39;1.83;65.08
69359;HTU21D;56520;49.066;8.660;2024-01-11T12:39:05;1.85;65.00
69359;HTU21D;56520;49.066;8.660;2024-01-11T12:41:31;1.93;64.75
69359;HTU21D;56520;49.066;8.660;2024-01-11T12:43:57;1.90;65.00
69359;HTU21D;56520;49.066;8.660;2024-01-11T12:46:23;1.92;64.47
69359;HTU21D;56520;49.066;8.660;2024-01-11T12:48:49;1.86;63.41
69359;HTU21D;56520;49.066;8.660;2024-01-11T12:51:18;1.81;63.80
69359;HTU21D;56520;49.066;8.660;2024-01-11T12:53:48;1.81;64.47
69359;HTU21D;56520;49.066;8.660;2024-01-11T12:56:15;1.90;64.71
69359;HTU21D;56520;49.066;8.660;2024-01-11T12:58:41;1.98;64.14
69359;HTU21D;56520;49.066;8.660;2024-01-11T13:01:07;2.02;64.40
69359;HTU21D;56520;49.066;8.660;2024-01-11T13:03:33;2.05;64.31
69359;HTU21D;56520;49.066;8.660;2024-01-11T13:05:59;2.08;63.70
69359;HTU21D;56520;49.066;8.660;2024-01-11T13:08:24;2.06;63.08
69359;HTU21D;56520;49.066;8.660;2024-01-11T13:10:50;2.00;62.66
69359;HTU21D;56520;49.066;8.660;2024-01-11T13:13:15;1.95;63.21
69359;HTU21D;56520;49.066;8.660;2024-01-11T13:15:41;1.93;64.01
69359;HTU21D;56520;49.066;8.660;2024-01-11T13:18:06;1.96;63.51
69359;HTU21D;56520;49.066;8.660;2024-01-11T13:20:32;1.98;63.37
69359;HTU21D;56520;49.066;8.660;2024-01-11T13:23:16;2.03;62.63
69359;HTU21D;56520;49.066;8.660;2024-01-11T13:25:43;2.05;63.23
69359;HTU21D;56520;49.066;8.660;2024-01-11T13:28:10;2.06;63.10
69359;HTU21D;56520;49.066;8.660;2024-01-11T13:30:37;2.08;62.99
69359;HTU21D;56520;49.066;8.660;2024-01-11T13:33:04;2.10;63.27
69359;HTU21D;56520;49.066;8.660;2024-01-11T13:35:29;2.13;62.77
69359;HTU21D;56520;49.066;8.660;2024-01-11T13:37:55;2.06;62.85
69359;HTU21D;56520;49.066;8.660;2024-01-11T13:40:20;2.03;62.31
69359;HTU21D;56520;49.066;8.660;2024-01-11T13:42:46;1.98;63.14
69359;HTU21D;56520;49.066;8.660;2024-01-11T13:45:11;1.95;63.23
69359;HTU21D;56520;49.066;8.660;2024-01-11T13:47:38;1.99;63.34
69359;HTU21D;56520;49.066;8.660;2024-01-11T13:50:03;2.08;63.56
69359;HTU21D;56520;49.066;8.660;2024-01-11T13:52:29;2.11;63.73
69359;HTU21D;56520;49.066;8.660;2024-01-11T13:54:54;2.17;63.15
69359;HTU21D;56520;49.066;8.660;2024-01-11T13:57:20;2.09;63.47
69359;HTU21D;56520;49.066;8.660;2024-01-11T13:59:46;2.07;63.70
69359;HTU21D;56520;49.066;8.660;2024-01-11T14:02:11;2.02;63.37
69359;HTU21D;56520;49.066;8.660;2024-01-11T14:04:37;1.96;63.73
69359;HTU21D;56520;49.066;8.660;2024-01-11T14:07:02;1.96;63.93
69359;HTU21D;56520;49.066;8.660;2024-01-11T14:09:29;1.91;64.14
69359;HTU21D;56520;49.066;8.660;2024-01-11T14:11:54;1.86;63.79
69359;HTU21D;56520;49.066;8.660;2024-01-11T14:14:19;1.81;64.05
69359;HTU21D;56520;49.066;8.660;2024-01-11T14:16:46;1.80;64.35
69359;HTU21D;56520;49.066;8.660;2024-01-11T14:19:12;1.75;64.55
69359;HTU21D;56520;49.066;8.660;2024-01-11T14:21:37;1.73;64.69
69359;HTU21D;56520;49.066;8.660;2024-01-11T14:24:04;1.69;64.40
69359;HTU21D;56520;49.066;8.660;2024-01-11T14:26:31;1.64;64.47
69359;HTU21D;56520;49.066;8.660;2024-01-11T14:28:56;1.58;64.54
69359;HTU21D;56520;49.066;8.660;2024-01-11T14:31:22;1.53;64.89
69359;HTU21D;56520;49.066;8.660;2024-01-11T14:33:47;1.49;64.69
69359;HTU21D;56520;49.066;8.660;2024-01-11T14:36:13;1.43;64.60
69359;HTU21D;56520;49.066;8.660;2024-01-11T14:38:39;1.38;64.50
69359;HTU21D;56520;49.066;8.660;2024-01-11T14:41:05;1.31;64.69
69359;HTU21D;56520;49.066;8.660;2024-01-11T14:43:30;1.27;64.62
69359;HTU21D;56520;49.066;8.660;2024-01-11T14:45:55;1.24;64.53
69359;HTU21D;56520;49.066;8.660;2024-01-11T14:48:21;1.17;64.53
69359;HTU21D;56520;49.066;8.660;2024-01-11T14:50:50;1.10;64.86
69359;HTU21D;56520;49.066;8.660;2024-01-11T14:53:15;1.05;65.08
69359;HTU21D;56520;49.066;8.660;2024-01-11T14:55:41;0.96;65.45
69359;HTU21D;56520;49.066;8.660;2024-01-11T14:58:06;0.86;65.79
69359;HTU21D;56520;49.066;8.660;2024-01-11T15:00:31;0.76;66.01
69359;HTU21D;56520;49.066;8.660;2024-01-11T15:02:57;0.68;66.24
69359;HTU21D;56520;49.066;8.660;2024-01-11T15:05:22;0.59;66.50
69359;HTU21D;56520;49.066;8.660;2024-01-11T15:07:47;0.54;66.61
69359;HTU21D;56520;49.066;8.660;2024-01-11T15:10:13;0.47;66.72
69359;HTU21D;56520;49.066;8.660;2024-01-11T15:12:38;0.37;66.90
69359;HTU21D;56520;49.066;8.660;2024-01-11T15:15:04;0.25;67.05
69359;HTU21D;56520;49.066;8.660;2024-01-11T15:17:33;0.19;67.41
69359;HTU21D;56520;49.066;8.660;2024-01-11T15:19:58;0.10;67.51